createdAt,value
2018-06-30T00:02:15.141Z,96.60
2018-06-30T00:04:48.765Z,96.20
2018-06-30T00:07:17.174Z,96.30
2018-06-30T00:09:45.548Z,97.00
2018-06-30T00:12:13.995Z,97.20
2018-06-30T00:14:42.415Z,97.00
2018-06-30T00:17:11.143Z,97.10
2018-06-30T00:19:39.558Z,97.20
2018-06-30T00:22:07.951Z,96.70
2018-06-30T00:24:36.537Z,96.60
2018-06-30T00:29:39.819Z,97.00
2018-06-30T00:32:08.161Z,97.50
2018-06-30T00:34:36.621Z,98.00
2018-06-30T00:37:05.025Z,97.40
2018-06-30T00:39:33.373Z,97.10
2018-06-30T00:44:29.800Z,97.90
2018-06-30T00:46:58.188Z,98.20
2018-06-30T00:49:26.605Z,98.20
2018-06-30T00:51:54.948Z,98.60
2018-06-30T00:54:23.326Z,98.70
2018-06-30T00:56:51.760Z,98.50
2018-06-30T00:59:20.080Z,98.60
2018-06-30T01:01:48.439Z,98.50
2018-06-30T01:04:16.758Z,98.00
2018-06-30T01:06:45.185Z,98.10
2018-06-30T01:09:13.606Z,98.50
2018-06-30T01:11:41.988Z,99.20
2018-06-30T01:14:10.363Z,98.30
2018-06-30T01:16:38.802Z,98.10
2018-06-30T01:19:07.281Z,98.90
2018-06-30T01:21:35.713Z,99.40
2018-06-30T01:24:04.098Z,99.40
2018-06-30T01:26:33.495Z,99.10
2018-06-30T01:29:01.969Z,98.70
2018-06-30T01:31:30.361Z,98.10
2018-06-30T01:33:59.046Z,98.70
2018-06-30T01:36:27.551Z,98.40
2018-06-30T07:38:52.336Z,92.10
2018-06-30T07:41:20.849Z,91.80
2018-06-30T07:43:49.232Z,91.60
2018-06-30T07:46:17.593Z,91.50
2018-06-30T07:48:46.285Z,91.30
2018-06-30T07:51:15.145Z,91.20
2018-06-30T07:53:43.563Z,91.20
2018-06-30T07:56:12.191Z,91.40
2018-06-30T07:58:40.677Z,91.30
2018-06-30T08:01:09.113Z,91.30
2018-06-30T08:03:38.281Z,91.10
2018-06-30T08:06:07.338Z,90.60
2018-06-30T08:08:36.385Z,90.50
2018-06-30T08:11:09.867Z,90.30
2018-06-30T08:13:39.535Z,90.00
2018-06-30T08:16:10.110Z,88.80
2018-06-30T08:18:39.076Z,87.90
2018-06-30T08:21:07.652Z,87.80
2018-06-30T08:39:25.714Z,86.10
2018-06-30T08:42:15.965Z,84.50
2018-06-30T08:44:45.841Z,83.10
2018-06-30T08:47:15.627Z,84.20
2018-06-30T08:49:44.393Z,83.60
2018-06-30T08:52:13.346Z,83.70
2018-06-30T08:54:43.360Z,83.70
2018-06-30T08:57:18.878Z,83.70
2018-06-30T08:59:48.689Z,80.90
2018-06-30T09:02:17.967Z,81.80
2018-06-30T09:04:47.620Z,81.20
2018-06-30T09:07:16.918Z,80.40
2018-06-30T09:46:22.517Z,76.00
2018-06-30T09:48:53.019Z,77.10
2018-06-30T09:51:21.759Z,75.50
2018-06-30T09:53:50.496Z,75.00
2018-06-30T09:56:20.135Z,74.70
2018-06-30T09:58:49.442Z,74.10
2018-06-30T10:01:20.138Z,75.10
2018-06-30T10:03:48.814Z,74.70
2018-06-30T10:06:17.747Z,75.30
2018-06-30T10:08:46.634Z,75.30
2018-06-30T10:11:15.768Z,73.70
2018-06-30T10:13:44.954Z,73.50
2018-06-30T10:16:18.293Z,73.00
2018-06-30T10:18:48.042Z,71.80
2018-06-30T10:21:21.630Z,70.80
2018-06-30T10:23:57.567Z,70.80
2018-06-30T10:26:26.922Z,70.60
2018-06-30T10:28:58.585Z,69.20
2018-06-30T10:31:27.995Z,69.10
2018-06-30T10:33:57.830Z,69.90
2018-06-30T10:36:27.286Z,68.70
2018-06-30T10:38:57.502Z,68.90
2018-06-30T10:41:27.977Z,67.70
2018-06-30T10:43:57.397Z,64.90
2018-06-30T10:46:32.801Z,66.30
2018-06-30T10:49:01.931Z,64.70
2018-06-30T10:51:31.937Z,64.30
2018-06-30T10:54:00.721Z,64.20
2018-06-30T10:56:29.917Z,64.80
2018-06-30T10:58:59.077Z,64.40
2018-06-30T11:01:28.069Z,63.90
2018-06-30T11:03:57.805Z,63.70
2018-06-30T11:06:26.877Z,63.90
2018-06-30T11:08:55.523Z,62.90
2018-06-30T11:11:29.117Z,62.80
2018-06-30T11:13:57.922Z,63.40
2018-06-30T11:16:27.108Z,63.10
2018-06-30T11:18:56.801Z,62.90
2018-06-30T11:21:25.967Z,62.70
2018-06-30T11:26:29.426Z,63.50
2018-06-30T11:28:59.803Z,64.00
2018-06-30T11:31:30.032Z,63.40
2018-06-30T11:34:12.771Z,63.00
2018-06-30T11:36:48.936Z,61.70
2018-06-30T11:39:25.244Z,60.80
2018-06-30T11:41:54.510Z,60.60
2018-06-30T11:44:33.266Z,61.20
2018-06-30T11:53:07.970Z,60.30
2018-06-30T11:55:36.789Z,57.80
2018-06-30T11:58:06.079Z,57.80
2018-06-30T12:00:34.660Z,57.00
2018-06-30T12:03:04.694Z,55.80
2018-06-30T12:05:33.307Z,56.30
2018-06-30T12:08:02.986Z,55.00
2018-06-30T12:22:44.392Z,55.60
2018-06-30T12:25:12.803Z,55.80
2018-06-30T12:27:41.421Z,55.30
2018-06-30T12:32:48.499Z,53.80
2018-06-30T12:35:17.288Z,56.40
2018-06-30T12:37:46.094Z,56.30
2018-06-30T12:40:14.955Z,55.50
2018-06-30T12:42:43.511Z,57.00
2018-06-30T12:45:12.036Z,56.30
2018-06-30T12:47:40.465Z,56.00
2018-06-30T12:50:08.885Z,56.70
2018-06-30T12:52:37.210Z,55.40
2018-06-30T12:55:06.627Z,56.80
2018-06-30T12:57:35.987Z,56.40
2018-06-30T13:00:05.366Z,55.50
2018-06-30T13:02:34.325Z,55.40
2018-06-30T13:05:02.961Z,56.20
2018-06-30T13:07:31.537Z,55.10
2018-06-30T13:10:00.338Z,55.00
2018-06-30T13:12:28.951Z,54.30
2018-06-30T13:14:57.863Z,53.90
2018-06-30T13:17:27.248Z,53.20
2018-06-30T13:19:56.426Z,51.60
2018-06-30T13:22:25.193Z,50.00
2018-06-30T13:24:54.969Z,50.90
2018-06-30T13:27:26.590Z,51.60
2018-06-30T13:29:59.466Z,52.80
2018-06-30T14:39:41.621Z,46.00
2018-06-30T14:42:10.338Z,47.40
2018-06-30T14:44:38.706Z,48.70
2018-06-30T14:47:07.352Z,47.20
2018-06-30T14:49:36.123Z,45.50
2018-06-30T14:52:04.675Z,44.70
2018-06-30T14:54:33.206Z,44.10
2018-06-30T14:57:03.820Z,42.20
2018-06-30T14:59:32.298Z,40.90
2018-06-30T15:02:01.161Z,41.60
2018-06-30T15:04:29.785Z,42.40
2018-06-30T15:06:58.659Z,41.50
2018-06-30T15:09:27.430Z,40.20
2018-06-30T15:36:15.318Z,37.40
2018-06-30T15:38:49.245Z,35.30
2018-06-30T15:41:17.809Z,34.20
2018-06-30T15:43:48.796Z,34.00
2018-06-30T15:46:19.338Z,32.60
2018-06-30T15:57:55.609Z,35.00
2018-06-30T16:00:24.356Z,34.60
2018-06-30T16:02:52.741Z,34.20
2018-06-30T16:05:21.145Z,34.10
2018-06-30T16:07:49.520Z,34.20
2018-06-30T16:10:18.121Z,34.50
2018-06-30T16:12:46.613Z,34.30
2018-06-30T16:15:15.009Z,33.90
2018-06-30T16:17:43.350Z,34.10
2018-06-30T16:20:11.707Z,33.90
2018-06-30T16:22:40.313Z,33.30
2018-06-30T16:25:08.763Z,33.70
2018-06-30T16:27:37.141Z,33.20
2018-06-30T16:30:06.673Z,32.80
2018-06-30T16:32:35.920Z,33.60
2018-06-30T16:35:04.502Z,32.50
2018-06-30T16:40:01.117Z,31.80
2018-06-30T16:42:29.991Z,30.40
2018-06-30T16:44:58.409Z,30.20
2018-06-30T16:47:26.845Z,30.40
2018-06-30T16:49:55.232Z,31.10
2018-06-30T16:52:23.627Z,31.60
2018-06-30T16:54:52.372Z,32.00
2018-06-30T16:57:20.737Z,31.00
2018-06-30T16:59:49.594Z,32.00
2018-06-30T17:02:18.062Z,32.10
2018-06-30T17:04:46.356Z,31.90
2018-06-30T17:07:14.757Z,32.10
2018-06-30T17:09:43.080Z,32.40
2018-06-30T17:12:11.428Z,33.40
2018-06-30T17:14:39.796Z,32.80
2018-06-30T17:17:08.180Z,32.60
2018-06-30T17:19:36.530Z,33.00
2018-06-30T17:22:04.902Z,33.00
2018-06-30T17:24:33.286Z,33.20
2018-06-30T17:27:01.683Z,33.00
2018-06-30T17:29:30.095Z,33.30
2018-06-30T17:31:58.454Z,32.80
2018-06-30T17:34:26.833Z,32.50
2018-06-30T17:36:55.193Z,32.70
2018-06-30T17:39:23.656Z,31.80
2018-06-30T17:41:52.036Z,31.30
2018-06-30T17:44:20.388Z,31.40
2018-06-30T17:46:48.749Z,31.20
2018-06-30T17:49:24.314Z,30.70
2018-06-30T17:51:52.653Z,30.80
2018-06-30T17:54:22.079Z,30.90
2018-06-30T17:56:50.766Z,30.70
2018-06-30T17:59:19.098Z,30.40
2018-06-30T18:01:47.703Z,31.00
2018-06-30T18:04:16.108Z,30.50
2018-06-30T18:06:44.485Z,29.60
2018-06-30T18:09:13.792Z,29.70
2018-06-30T18:11:42.810Z,29.40
2018-06-30T18:14:11.577Z,29.30
2018-06-30T18:16:40.934Z,28.80
2018-06-30T18:19:09.333Z,27.90
2018-06-30T18:21:38.709Z,27.80
2018-06-30T18:24:07.060Z,27.40
2018-06-30T18:26:35.435Z,27.20
2018-06-30T18:29:03.913Z,27.20
2018-06-30T18:31:32.325Z,27.10
2018-06-30T18:34:08.116Z,27.40
2018-06-30T18:36:36.485Z,27.20
2018-06-30T18:39:08.426Z,27.70
2018-06-30T18:41:36.910Z,28.00
2018-06-30T18:44:05.403Z,28.10
2018-06-30T18:46:33.772Z,28.40
2018-06-30T18:49:02.648Z,28.60
2018-06-30T18:51:31.012Z,28.70
2018-06-30T18:53:59.374Z,28.60
2018-06-30T18:56:27.861Z,29.20
2018-06-30T18:58:56.335Z,29.50
2018-06-30T19:01:25.010Z,29.80
2018-06-30T19:03:53.734Z,29.90
2018-06-30T19:06:22.086Z,30.90
2018-06-30T19:08:50.672Z,30.30
2018-06-30T19:11:18.977Z,30.40
2018-06-30T19:13:47.394Z,30.90
2018-06-30T19:16:15.762Z,30.90
2018-06-30T19:18:45.239Z,31.60
2018-06-30T19:21:14.780Z,31.70
2018-06-30T19:23:43.711Z,31.80
2018-06-30T19:26:12.884Z,32.50
2018-06-30T19:28:41.466Z,32.60
2018-06-30T19:31:10.022Z,32.90
2018-06-30T19:33:38.393Z,33.10
2018-06-30T19:36:06.977Z,33.20
2018-06-30T19:38:35.417Z,33.50
2018-06-30T19:41:03.903Z,33.30
2018-06-30T19:43:32.355Z,33.60
2018-06-30T19:46:01.100Z,33.80
2018-06-30T19:48:30.326Z,34.40
2018-06-30T19:50:58.893Z,34.80
2018-06-30T19:53:27.224Z,35.70
2018-06-30T19:55:55.719Z,35.20
2018-06-30T19:58:24.089Z,35.40
2018-06-30T20:00:52.775Z,35.60
2018-06-30T20:03:21.082Z,35.40
2018-06-30T20:05:49.528Z,35.30
2018-06-30T20:08:17.871Z,35.60
2018-06-30T20:10:46.440Z,35.60
2018-06-30T20:13:14.836Z,36.50
2018-06-30T20:15:43.545Z,36.30
2018-06-30T20:18:12.033Z,36.90
2018-06-30T20:20:40.463Z,37.30
2018-06-30T20:23:08.911Z,37.60
2018-06-30T20:25:37.260Z,37.90
2018-06-30T20:28:05.812Z,38.10
2018-06-30T20:30:34.262Z,38.10
2018-06-30T20:33:03.247Z,37.90
2018-06-30T20:50:43.851Z,36.30
2018-06-30T20:53:13.209Z,35.90
2018-06-30T20:55:43.606Z,36.00
2018-06-30T20:58:12.046Z,35.70
2018-06-30T21:00:40.461Z,35.30
2018-06-30T21:03:11.334Z,35.50
2018-06-30T21:05:39.733Z,35.10
2018-06-30T21:08:08.228Z,35.00
2018-06-30T21:10:36.864Z,35.30
2018-06-30T21:13:05.430Z,35.60
2018-06-30T21:15:34.565Z,35.30
2018-06-30T21:18:05.615Z,35.70
2018-06-30T21:20:37.066Z,35.70
2018-06-30T21:23:07.556Z,35.40
2018-06-30T21:25:39.058Z,34.90
2018-06-30T21:28:10.431Z,34.90
2018-06-30T21:37:06.790Z,35.00
2018-06-30T21:39:35.231Z,34.80
2018-06-30T21:42:52.698Z,35.00
2018-06-30T21:45:27.097Z,35.10
2018-06-30T21:48:00.530Z,34.90
2018-06-30T21:50:35.628Z,35.20
2018-06-30T21:53:04.205Z,35.30
2018-06-30T21:55:32.694Z,35.30
2018-06-30T21:58:03.080Z,35.10
2018-06-30T22:00:48.159Z,35.20
2018-06-30T22:03:19.910Z,35.50
2018-06-30T22:05:48.784Z,35.40
2018-06-30T22:08:17.558Z,35.70
2018-06-30T22:10:46.845Z,35.70
2018-06-30T22:13:15.749Z,35.90
2018-06-30T22:15:45.451Z,36.00
2018-06-30T22:18:14.768Z,36.20
2018-06-30T22:20:44.228Z,36.10
2018-06-30T22:23:13.833Z,35.70
2018-06-30T22:25:43.205Z,36.20
2018-06-30T22:28:12.371Z,36.20
2018-06-30T22:30:44.990Z,36.30
2018-06-30T22:33:18.165Z,36.20
2018-06-30T22:35:48.702Z,36.70
2018-06-30T22:38:19.031Z,36.30
2018-06-30T22:40:49.694Z,36.60
2018-06-30T22:43:18.781Z,36.70
2018-06-30T22:45:47.611Z,36.70
2018-06-30T22:48:17.863Z,36.90
2018-06-30T22:50:46.980Z,36.40
2018-06-30T22:53:16.386Z,36.60
2018-06-30T22:55:45.083Z,36.90
2018-06-30T22:58:14.313Z,36.60
2018-06-30T23:00:43.130Z,36.60
2018-06-30T23:03:12.807Z,36.70
2018-06-30T23:05:42.227Z,36.80
2018-06-30T23:08:14.020Z,36.90
2018-06-30T23:10:42.623Z,36.90
2018-06-30T23:13:11.316Z,37.00
2018-06-30T23:15:39.836Z,37.20
2018-06-30T23:18:08.322Z,37.10
2018-06-30T23:20:36.813Z,37.40
2018-06-30T23:23:09.365Z,37.50
2018-06-30T23:25:38.453Z,37.70
2018-06-30T23:28:07.119Z,37.70
2018-06-30T23:30:35.961Z,37.90
2018-06-30T23:33:04.432Z,38.10
2018-06-30T23:35:33.554Z,38.00
2018-06-30T23:38:02.691Z,37.90
2018-06-30T23:40:31.125Z,38.10
2018-06-30T23:42:59.661Z,38.20
2018-06-30T23:45:28.130Z,38.30
2018-06-30T23:47:56.576Z,38.40
2018-06-30T23:50:25.076Z,38.60
2018-06-30T23:52:53.494Z,38.80
2018-06-30T23:55:21.969Z,38.80
2018-06-30T23:57:50.434Z,38.80
